createdAt,value
2018-07-05T00:00:50.195Z,1004.47
2018-07-05T00:01:50.186Z,1004.46
2018-07-05T00:02:50.177Z,1004.49
2018-07-05T00:03:50.168Z,1004.49
2018-07-05T00:04:50.161Z,1004.47
2018-07-05T00:05:50.150Z,1004.5
2018-07-05T00:06:50.141Z,1004.53
2018-07-05T00:07:50.131Z,1004.51
2018-07-05T00:08:50.121Z,1004.55
2018-07-05T00:09:50.113Z,1004.53
2018-07-05T00:10:50.104Z,1004.53
2018-07-05T00:11:50.095Z,1004.57
2018-07-05T00:12:50.086Z,1004.57
2018-07-05T00:13:50.079Z,1004.56
2018-07-05T00:14:50.067Z,1004.61
2018-07-05T00:15:50.065Z,1004.65
2018-07-05T00:16:50.049Z,1004.68
2018-07-05T00:17:50.041Z,1004.65
2018-07-05T00:18:50.032Z,1004.65
2018-07-05T00:19:50.026Z,1004.62
2018-07-05T00:20:50.015Z,1004.62
2018-07-05T00:21:50.005Z,1004.58
2018-07-05T00:22:49.993Z,1004.58
2018-07-05T00:23:49.987Z,1004.58
2018-07-05T00:24:49.974Z,1004.56
2018-07-05T00:25:49.967Z,1004.59
2018-07-05T00:26:49.958Z,1004.54
2018-07-05T00:27:49.953Z,1004.58
2018-07-05T00:28:49.937Z,1004.56
2018-07-05T00:29:49.927Z,1004.51
2018-07-05T00:30:49.919Z,1004.52
2018-07-05T00:31:49.910Z,1004.54
2018-07-05T00:32:49.902Z,1004.49
2018-07-05T00:33:49.890Z,1004.48
2018-07-05T00:34:49.880Z,1004.46
2018-07-05T00:35:49.872Z,1004.45
2018-07-05T00:36:49.864Z,1004.44
2018-07-05T00:37:49.859Z,1004.41
2018-07-05T00:38:49.846Z,1004.41
2018-07-05T00:39:49.839Z,1004.37
2018-07-05T00:40:49.824Z,1004.37
2018-07-05T00:41:49.814Z,1004.36
2018-07-05T00:42:49.806Z,1004.38
2018-07-05T00:43:49.796Z,1004.34
2018-07-05T00:44:49.786Z,1004.38
2018-07-05T00:45:49.780Z,1004.33
2018-07-05T00:46:49.767Z,1004.31
2018-07-05T00:47:49.756Z,1004.29
2018-07-05T00:48:49.747Z,1004.26
2018-07-05T00:49:49.739Z,1004.31
2018-07-05T00:50:49.730Z,1004.28
2018-07-05T00:51:49.717Z,1004.26
2018-07-05T00:52:49.709Z,1004.26
2018-07-05T00:53:49.700Z,1004.28
2018-07-05T00:54:49.693Z,1004.28
2018-07-05T00:55:49.681Z,1004.2
2018-07-05T00:56:49.674Z,1004.21
2018-07-05T00:57:49.666Z,1004.22
2018-07-05T00:58:49.650Z,1004.23
2018-07-05T00:59:49.640Z,1004.22
2018-07-05T01:00:49.632Z,1004.24
2018-07-05T01:01:49.624Z,1004.24
2018-07-05T01:02:49.611Z,1004.22
2018-07-05T01:03:49.603Z,1004.23
2018-07-05T01:04:49.593Z,1004.23
2018-07-05T01:05:49.584Z,1004.24
2018-07-05T01:06:49.574Z,1004.26
2018-07-05T01:07:49.562Z,1004.25
2018-07-05T01:08:49.553Z,1004.28
2018-07-05T01:09:49.546Z,1004.27
2018-07-05T01:10:49.531Z,1004.27
2018-07-05T01:11:49.525Z,1004.23
2018-07-05T01:12:49.514Z,1004.31
2018-07-05T01:13:49.502Z,1004.25
2018-07-05T01:14:49.493Z,1004.27
2018-07-05T01:15:49.484Z,1004.24
2018-07-05T01:16:49.474Z,1004.24
2018-07-05T01:17:49.464Z,1004.29
2018-07-05T01:18:49.456Z,1004.33
2018-07-05T01:19:49.445Z,1004.33
2018-07-05T01:20:49.433Z,1004.38
2018-07-05T01:21:49.422Z,1004.39
2018-07-05T01:22:49.413Z,1004.39
2018-07-05T01:23:49.404Z,1004.39
2018-07-05T01:24:49.394Z,1004.39
2018-07-05T01:25:49.391Z,1004.4
2018-07-05T01:26:49.373Z,1004.4
2018-07-05T01:27:49.364Z,1004.41
2018-07-05T01:28:49.355Z,1004.4
2018-07-05T01:29:49.346Z,1004.41
2018-07-05T01:30:49.336Z,1004.45
2018-07-05T01:31:49.324Z,1004.38
2018-07-05T01:32:49.314Z,1004.42
2018-07-05T01:33:49.307Z,1004.4
2018-07-05T01:34:49.300Z,1004.47
2018-07-05T01:35:49.284Z,1004.43
2018-07-05T01:36:49.276Z,1004.48
2018-07-05T01:37:49.266Z,1004.49
2018-07-05T01:38:49.257Z,1004.5
2018-07-05T01:39:49.244Z,1004.52
2018-07-05T01:40:49.233Z,1004.53
2018-07-05T01:41:49.475Z,1004.55
2018-07-05T01:42:49.214Z,1004.55
2018-07-05T01:43:49.204Z,1004.51
2018-07-05T01:44:49.197Z,1004.53
2018-07-05T01:45:49.187Z,1004.48
2018-07-05T01:46:49.175Z,1004.48
2018-07-05T01:47:49.164Z,1004.49
2018-07-05T01:48:49.155Z,1004.48
2018-07-05T01:49:49.144Z,1004.49
2018-07-05T01:50:49.136Z,1004.48
2018-07-05T01:51:49.124Z,1004.46
2018-07-05T01:52:49.114Z,1004.46
2018-07-05T01:53:49.108Z,1004.45
2018-07-05T01:54:49.093Z,1004.47
2018-07-05T01:55:49.083Z,1004.47
2018-07-05T01:56:49.078Z,1004.47
2018-07-05T01:57:49.064Z,1004.47
2018-07-05T01:58:49.057Z,1004.48
2018-07-05T01:59:49.044Z,1004.46
2018-07-05T02:00:49.036Z,1004.5
2018-07-05T02:01:49.023Z,1004.5
2018-07-05T02:02:49.014Z,1004.5
2018-07-05T02:03:49.007Z,1004.49
2018-07-05T02:04:48.992Z,1004.49
2018-07-05T02:05:48.985Z,1004.56
2018-07-05T02:06:48.972Z,1004.51
2018-07-05T02:07:48.963Z,1004.55
2018-07-05T02:08:48.952Z,1004.52
2018-07-05T02:09:48.947Z,1004.48
2018-07-05T02:10:48.934Z,1004.42
2018-07-05T02:11:48.925Z,1004.43
2018-07-05T02:12:48.914Z,1004.4
2018-07-05T02:13:48.904Z,1004.43
2018-07-05T02:14:48.891Z,1004.45
2018-07-05T02:15:48.881Z,1004.44
2018-07-05T02:16:48.872Z,1004.43
2018-07-05T02:17:48.860Z,1004.47
2018-07-05T02:18:48.851Z,1004.45
2018-07-05T02:19:48.840Z,1004.48
2018-07-05T02:20:48.831Z,1004.46
2018-07-05T02:21:48.819Z,1004.47
2018-07-05T02:22:48.811Z,1004.5
2018-07-05T02:23:48.798Z,1004.49
2018-07-05T02:24:48.791Z,1004.49
2018-07-05T02:25:48.785Z,1004.51
2018-07-05T02:26:48.768Z,1004.5
2018-07-05T02:27:48.757Z,1004.47
2018-07-05T02:28:48.748Z,1004.48
2018-07-05T02:29:48.741Z,1004.51
2018-07-05T02:30:48.726Z,1004.45
2018-07-05T02:31:48.722Z,1004.45
2018-07-05T02:32:48.709Z,1004.42
2018-07-05T02:33:48.701Z,1004.38
2018-07-05T02:34:48.690Z,1004.37
2018-07-05T02:35:48.677Z,1004.36
2018-07-05T02:36:48.665Z,1004.32
2018-07-05T02:37:48.654Z,1004.37
2018-07-05T02:38:48.643Z,1004.33
2018-07-05T02:39:48.633Z,1004.31
2018-07-05T02:40:48.626Z,1004.36
2018-07-05T02:41:48.613Z,1004.36
2018-07-05T02:42:48.600Z,1004.37
2018-07-05T02:43:48.593Z,1004.37
2018-07-05T02:44:48.581Z,1004.37
2018-07-05T02:45:48.570Z,1004.38
2018-07-05T02:46:48.563Z,1004.38
2018-07-05T02:47:48.550Z,1004.36
2018-07-05T02:48:48.541Z,1004.37
2018-07-05T02:49:48.529Z,1004.34
2018-07-05T02:50:48.517Z,1004.35
2018-07-05T02:51:48.508Z,1004.32
2018-07-05T02:52:48.496Z,1004.29
2018-07-05T02:53:48.486Z,1004.26
2018-07-05T02:54:48.476Z,1004.21
2018-07-05T02:55:48.464Z,1004.26
2018-07-05T02:56:48.463Z,1004.21
2018-07-05T02:57:48.447Z,1004.24
2018-07-05T02:58:48.436Z,1004.25
2018-07-05T02:59:48.422Z,1004.27
2018-07-05T03:00:48.410Z,1004.3
2018-07-05T03:01:48.400Z,1004.31
2018-07-05T03:02:48.391Z,1004.31
2018-07-05T03:03:48.381Z,1004.34
2018-07-05T03:04:48.372Z,1004.32
2018-07-05T03:05:48.366Z,1004.32
2018-07-05T03:06:48.355Z,1004.32
2018-07-05T03:07:48.337Z,1004.34
2018-07-05T03:08:48.326Z,1004.3
2018-07-05T03:09:48.315Z,1004.3
2018-07-05T03:10:48.308Z,1004.28
2018-07-05T03:11:48.292Z,1004.22
2018-07-05T03:12:48.283Z,1004.27
2018-07-05T03:13:48.275Z,1004.25
2018-07-05T03:14:48.260Z,1004.22
2018-07-05T03:15:48.251Z,1004.22
2018-07-05T03:16:48.238Z,1004.19
2018-07-05T03:17:48.236Z,1004.16
2018-07-05T03:18:48.216Z,1004.19
2018-07-05T03:19:48.207Z,1004.21
2018-07-05T03:20:48.195Z,1004.21
2018-07-05T03:21:48.183Z,1004.23
2018-07-05T03:22:48.173Z,1004.22
2018-07-05T03:23:48.160Z,1004.21
2018-07-05T03:24:48.150Z,1004.25
2018-07-05T03:25:48.139Z,1004.29
2018-07-05T03:26:48.129Z,1004.27
2018-07-05T03:27:48.118Z,1004.26
2018-07-05T03:28:48.106Z,1004.26
2018-07-05T03:29:48.094Z,1004.3
2018-07-05T03:30:48.085Z,1004.31
2018-07-05T03:31:48.079Z,1004.34
2018-07-05T03:32:48.063Z,1004.36
2018-07-05T03:33:48.052Z,1004.35
2018-07-05T03:34:48.042Z,1004.4
2018-07-05T03:35:48.032Z,1004.36
2018-07-05T03:36:48.019Z,1004.39
2018-07-05T03:37:48.008Z,1004.38
2018-07-05T03:38:47.997Z,1004.37
2018-07-05T03:39:47.986Z,1004.33
2018-07-05T03:40:47.974Z,1004.37
2018-07-05T03:41:47.963Z,1004.35
2018-07-05T03:42:47.953Z,1004.34
2018-07-05T03:43:47.941Z,1004.41
2018-07-05T03:44:47.930Z,1004.4
2018-07-05T03:45:47.920Z,1004.45
2018-07-05T03:46:47.911Z,1004.45
2018-07-05T03:47:47.898Z,1004.48
2018-07-05T03:48:47.888Z,1004.46
2018-07-05T03:49:47.877Z,1004.47
2018-07-05T03:50:47.874Z,1004.47
2018-07-05T03:51:47.855Z,1004.5
2018-07-05T03:52:47.842Z,1004.51
2018-07-05T03:53:47.834Z,1004.52
2018-07-05T03:54:47.821Z,1004.53
2018-07-05T03:55:47.815Z,1004.55
2018-07-05T03:56:47.800Z,1004.53
2018-07-05T03:57:47.789Z,1004.6
2018-07-05T03:58:47.785Z,1004.58
2018-07-05T03:59:47.767Z,1004.56
2018-07-05T04:00:47.762Z,1004.56
2018-07-05T04:01:47.745Z,1004.58
2018-07-05T04:02:47.737Z,1004.52
2018-07-05T04:03:47.726Z,1004.56
2018-07-05T04:04:47.719Z,1004.53
2018-07-05T04:05:47.704Z,1004.52
2018-07-05T04:06:47.690Z,1004.51
2018-07-05T04:07:47.687Z,1004.48
2018-07-05T04:08:47.669Z,1004.51
2018-07-05T04:09:47.661Z,1004.47
2018-07-05T04:10:47.649Z,1004.43
2018-07-05T04:11:47.637Z,1004.38
2018-07-05T04:12:47.627Z,1004.31
2018-07-05T04:13:47.615Z,1004.28
2018-07-05T04:14:47.606Z,1004.23
2018-07-05T04:15:47.650Z,1004.23
2018-07-05T04:16:47.583Z,1004.21
2018-07-05T04:17:47.573Z,1004.18
2018-07-05T04:18:47.562Z,1004.21
2018-07-05T04:19:47.551Z,1004.17
2018-07-05T04:20:47.544Z,1004.18
2018-07-05T04:21:47.532Z,1004.2
2018-07-05T04:22:47.521Z,1004.24
2018-07-05T04:23:47.509Z,1004.23
2018-07-05T04:24:47.496Z,1004.24
2018-07-05T04:25:47.491Z,1004.24
2018-07-05T04:26:47.480Z,1004.22
2018-07-05T04:27:47.465Z,1004.27
2018-07-05T04:28:47.457Z,1004.28
2018-07-05T04:29:47.446Z,1004.28
2018-07-05T04:30:47.434Z,1004.28
2018-07-05T04:31:47.424Z,1004.28
2018-07-05T04:32:47.415Z,1004.31
2018-07-05T04:33:47.405Z,1004.26
2018-07-05T04:34:47.395Z,1004.28
2018-07-05T04:35:47.380Z,1004.29
2018-07-05T04:36:47.371Z,1004.28
2018-07-05T04:37:47.360Z,1004.28
2018-07-05T04:38:47.350Z,1004.3
2018-07-05T04:39:47.339Z,1004.26
2018-07-05T04:40:47.330Z,1004.3
2018-07-05T04:41:47.324Z,1004.29
2018-07-05T04:42:47.307Z,1004.29
2018-07-05T04:43:47.296Z,1004.31
2018-07-05T04:44:47.294Z,1004.3
2018-07-05T04:45:47.275Z,1004.29
2018-07-05T04:46:47.269Z,1004.28
2018-07-05T04:47:47.256Z,1004.3
2018-07-05T04:48:47.244Z,1004.33
2018-07-05T04:49:47.238Z,1004.34
2018-07-05T04:50:47.223Z,1004.4
2018-07-05T04:51:47.213Z,1004.41
2018-07-05T04:52:47.199Z,1004.42
2018-07-05T04:53:47.196Z,1004.43
2018-07-05T04:54:47.180Z,1004.44
2018-07-05T04:55:47.175Z,1004.43
2018-07-05T04:56:47.163Z,1004.43
2018-07-05T04:57:47.149Z,1004.38
2018-07-05T04:58:47.142Z,1004.4
2018-07-05T04:59:47.128Z,1004.4
2018-07-05T05:00:47.124Z,1004.4
2018-07-05T05:01:47.108Z,1004.43
2018-07-05T05:02:47.102Z,1004.44
2018-07-05T05:03:47.089Z,1004.44
2018-07-05T05:04:47.077Z,1004.47
2018-07-05T05:05:47.065Z,1004.46
2018-07-05T05:06:47.058Z,1004.48
2018-07-05T05:07:47.046Z,1004.46
2018-07-05T05:08:47.131Z,1004.43
2018-07-05T05:09:47.025Z,1004.42
2018-07-05T05:10:47.016Z,1004.42
2018-07-05T05:11:47.006Z,1004.43
2018-07-05T05:12:46.995Z,1004.41
2018-07-05T05:13:46.986Z,1004.45
2018-07-05T05:14:46.975Z,1004.46
2018-07-05T05:15:46.964Z,1004.49
2018-07-05T05:16:46.958Z,1004.45
2018-07-05T05:17:46.946Z,1004.45
2018-07-05T05:18:46.968Z,1004.47
2018-07-05T05:19:46.925Z,1004.43
2018-07-05T05:20:46.915Z,1004.5
2018-07-05T05:21:46.907Z,1004.46
2018-07-05T05:22:46.896Z,1004.45
2018-07-05T05:23:46.886Z,1004.47
2018-07-05T05:24:46.878Z,1004.45
2018-07-05T05:25:46.866Z,1004.45
2018-07-05T05:26:46.859Z,1004.44
2018-07-05T05:27:46.847Z,1004.44
2018-07-05T05:28:46.837Z,1004.44
2018-07-05T05:29:46.830Z,1004.45
2018-07-05T05:30:46.821Z,1004.46
2018-07-05T05:31:46.809Z,1004.45
2018-07-05T05:32:46.798Z,1004.4
2018-07-05T05:33:46.789Z,1004.39
2018-07-05T05:34:46.780Z,1004.4
2018-07-05T05:35:46.770Z,1004.4
2018-07-05T05:36:46.760Z,1004.42
2018-07-05T05:37:46.751Z,1004.41
2018-07-05T05:38:46.740Z,1004.44
2018-07-05T05:39:46.730Z,1004.5
2018-07-05T05:40:46.722Z,1004.49
2018-07-05T05:41:46.711Z,1004.52
2018-07-05T05:42:46.703Z,1004.55
2018-07-05T05:43:46.695Z,1004.56
2018-07-05T05:44:46.688Z,1004.57
2018-07-05T05:45:46.675Z,1004.63
2018-07-05T05:46:46.668Z,1004.63
2018-07-05T05:47:46.748Z,1004.7
2018-07-05T05:48:46.644Z,1004.72
2018-07-05T05:49:46.636Z,1004.76
2018-07-05T05:50:46.626Z,1004.76
2018-07-05T05:51:46.618Z,1004.75
2018-07-05T05:52:46.612Z,1004.77
2018-07-05T05:53:46.598Z,1004.77
2018-07-05T05:54:46.588Z,1004.76
2018-07-05T05:55:46.581Z,1004.76
2018-07-05T05:56:46.571Z,1004.75
2018-07-05T05:57:46.563Z,1004.79
2018-07-05T05:58:46.555Z,1004.8
2018-07-05T05:59:46.544Z,1004.8
2018-07-05T06:00:46.536Z,1004.81
2018-07-05T06:01:46.569Z,1004.78
2018-07-05T06:02:46.519Z,1004.81
2018-07-05T06:03:46.510Z,1004.77
2018-07-05T06:04:46.497Z,1004.78
2018-07-05T06:05:46.496Z,1004.75
2018-07-05T06:06:46.482Z,1004.74
2018-07-05T06:07:46.471Z,1004.75
2018-07-05T06:08:46.461Z,1004.75
2018-07-05T06:09:46.454Z,1004.79
2018-07-05T06:10:46.443Z,1004.77
2018-07-05T06:11:46.440Z,1004.76
2018-07-05T06:12:46.424Z,1004.76
2018-07-05T06:13:46.422Z,1004.78
2018-07-05T06:14:46.409Z,1004.8
2018-07-05T06:15:46.401Z,1004.79
2018-07-05T06:16:46.388Z,1004.78
2018-07-05T06:17:46.379Z,1004.81
2018-07-05T06:18:46.370Z,1004.79
2018-07-05T06:19:46.365Z,1004.79
2018-07-05T06:20:46.352Z,1004.81
2018-07-05T06:21:46.344Z,1004.77
2018-07-05T06:22:46.335Z,1004.77
2018-07-05T06:23:46.325Z,1004.75
2018-07-05T06:24:46.316Z,1004.77
2018-07-05T06:25:46.307Z,1004.81
2018-07-05T06:26:46.298Z,1004.76
2018-07-05T06:27:46.289Z,1004.68
2018-07-05T06:28:46.281Z,1004.7
2018-07-05T06:29:46.272Z,1004.69
2018-07-05T06:30:46.266Z,1004.68
2018-07-05T06:31:46.254Z,1004.64
2018-07-05T06:32:46.245Z,1004.66
2018-07-05T06:33:46.236Z,1004.66
2018-07-05T06:34:46.230Z,1004.67
2018-07-05T06:35:46.219Z,1004.72
2018-07-05T06:36:46.214Z,1004.75
2018-07-05T06:37:46.216Z,1004.71
2018-07-05T06:38:46.197Z,1004.75
2018-07-05T06:39:46.187Z,1004.71
2018-07-05T06:40:46.179Z,1004.75
2018-07-05T06:41:46.171Z,1004.72
2018-07-05T06:42:46.161Z,1004.76
2018-07-05T06:43:46.154Z,1004.75
2018-07-05T06:44:46.149Z,1004.81
2018-07-05T06:45:46.135Z,1004.76
2018-07-05T06:46:46.129Z,1004.8
2018-07-05T06:47:46.121Z,1004.83
2018-07-05T06:48:46.114Z,1004.87
2018-07-05T06:49:46.106Z,1004.87
2018-07-05T06:50:46.099Z,1004.9
2018-07-05T06:51:46.089Z,1004.97
2018-07-05T06:52:46.085Z,1004.95
2018-07-05T06:53:46.075Z,1004.93
2018-07-05T06:54:46.070Z,1004.95
2018-07-05T06:55:46.060Z,1004.95
2018-07-05T06:56:46.050Z,1004.96
2018-07-05T06:57:46.045Z,1004.97
2018-07-05T06:58:46.035Z,1004.97
2018-07-05T06:59:46.031Z,1004.98
2018-07-05T07:00:46.023Z,1004.99
2018-07-05T07:01:46.013Z,1004.97
2018-07-05T07:02:46.004Z,1004.98
2018-07-05T07:03:46.000Z,1004.99
2018-07-05T07:04:45.990Z,1004.97
2018-07-05T07:05:45.980Z,1004.99
2018-07-05T07:06:45.975Z,1005.01
2018-07-05T07:07:45.966Z,1005.03
2018-07-05T07:08:45.962Z,1005.04
2018-07-05T07:09:45.952Z,1005.09
2018-07-05T07:10:45.944Z,1005.12
2018-07-05T07:11:45.936Z,1005.18
2018-07-05T07:12:45.929Z,1005.17
2018-07-05T07:13:45.922Z,1005.2
2018-07-05T07:14:45.915Z,1005.22
2018-07-05T07:15:45.907Z,1005.23
2018-07-05T07:16:45.905Z,1005.24
2018-07-05T07:17:45.895Z,1005.24
2018-07-05T07:18:45.885Z,1005.26
2018-07-05T07:19:45.877Z,1005.31
2018-07-05T07:20:45.873Z,1005.31
2018-07-05T07:21:45.862Z,1005.36
2018-07-05T07:22:45.855Z,1005.33
2018-07-05T07:23:45.850Z,1005.34
2018-07-05T07:24:45.840Z,1005.36
2018-07-05T07:25:45.832Z,1005.42
2018-07-05T07:26:45.829Z,1005.37
2018-07-05T07:27:45.819Z,1005.38
2018-07-05T07:28:45.810Z,1005.4
2018-07-05T07:29:45.802Z,1005.35
2018-07-05T07:30:45.794Z,1005.35
2018-07-05T07:31:45.863Z,1005.39
2018-07-05T07:32:45.785Z,1005.43
2018-07-05T07:33:45.774Z,1005.37
2018-07-05T07:34:45.768Z,1005.35
2018-07-05T07:35:45.760Z,1005.36
2018-07-05T07:36:45.757Z,1005.41
2018-07-05T07:37:45.754Z,1005.38
2018-07-05T07:38:45.737Z,1005.41
2018-07-05T07:39:45.730Z,1005.42
2018-07-05T07:40:45.722Z,1005.43
2018-07-05T07:41:45.714Z,1005.41
2018-07-05T07:42:45.915Z,1005.38
2018-07-05T07:43:45.701Z,1005.35
2018-07-05T07:44:45.693Z,1005.34
2018-07-05T07:45:45.764Z,1005.34
2018-07-05T07:46:45.682Z,1005.35
2018-07-05T07:47:45.671Z,1005.27
2018-07-05T07:48:45.672Z,1005.27
2018-07-05T07:49:45.661Z,1005.27
2018-07-05T07:50:45.653Z,1005.32
2018-07-05T07:51:45.645Z,1005.27
2018-07-05T07:52:45.641Z,1005.29
2018-07-05T07:53:45.633Z,1005.3
2018-07-05T07:54:45.630Z,1005.3
2018-07-05T07:55:45.623Z,1005.33
2018-07-05T07:56:45.613Z,1005.27
2018-07-05T07:57:45.607Z,1005.27
2018-07-05T07:58:45.601Z,1005.23
2018-07-05T07:59:45.596Z,1005.25
2018-07-05T08:00:45.588Z,1005.25
2018-07-05T08:01:45.583Z,1005.28
2018-07-05T08:02:45.578Z,1005.27
2018-07-05T08:03:45.572Z,1005.23
2018-07-05T08:04:45.570Z,1005.21
2018-07-05T08:05:45.561Z,1005.18
2018-07-05T08:06:45.553Z,1005.16
2018-07-05T08:07:45.552Z,1005.16
2018-07-05T08:08:45.548Z,1005.14
2018-07-05T08:09:45.539Z,1005.13
2018-07-05T08:10:45.535Z,1005.08
2018-07-05T08:11:45.529Z,1005.08
2018-07-05T08:12:45.527Z,1005.07
2018-07-05T08:13:45.522Z,1005.1
2018-07-05T08:14:45.516Z,1004.99
2018-07-05T08:15:45.512Z,1005.01
2018-07-05T08:16:45.788Z,1005.02
2018-07-05T08:17:45.512Z,1005.02
2018-07-05T08:18:45.501Z,1005.02
2018-07-05T08:19:45.496Z,1005.01
2018-07-05T08:20:45.491Z,1005.01
2018-07-05T08:21:45.488Z,1005
2018-07-05T08:22:45.486Z,1004.99
2018-07-05T08:23:45.483Z,1005.04
2018-07-05T08:24:45.476Z,1005.03
2018-07-05T08:25:45.473Z,1005.05
2018-07-05T08:26:45.470Z,1005.1
2018-07-05T08:27:45.469Z,1005.13
2018-07-05T08:28:45.467Z,1005.13
2018-07-05T08:29:45.465Z,1005.14
2018-07-05T08:30:45.460Z,1005.1
2018-07-05T08:31:45.455Z,1005.1
2018-07-05T08:32:45.456Z,1005.05
2018-07-05T08:33:45.451Z,1005.02
2018-07-05T08:34:45.449Z,1005.09
2018-07-05T08:35:45.445Z,1005.11
2018-07-05T08:36:45.448Z,1005.08
2018-07-05T08:37:45.442Z,1005.05
2018-07-05T08:38:45.437Z,1005.02
2018-07-05T08:39:45.478Z,1005.01
2018-07-05T08:40:45.433Z,1004.92
2018-07-05T08:41:45.428Z,1004.96
2018-07-05T08:42:45.425Z,1004.92
2018-07-05T08:43:45.424Z,1004.93
2018-07-05T08:44:45.444Z,1004.9
2018-07-05T08:45:45.420Z,1004.86
2018-07-05T08:46:45.412Z,1004.86
2018-07-05T08:47:45.409Z,1004.85
2018-07-05T08:48:45.409Z,1004.89
2018-07-05T08:49:45.403Z,1004.88
2018-07-05T08:50:45.399Z,1004.84
2018-07-05T08:51:45.397Z,1004.89
2018-07-05T08:52:45.394Z,1005.02
2018-07-05T08:53:45.389Z,1005.31
2018-07-05T08:54:45.385Z,1005.25
2018-07-05T08:55:45.381Z,1004.92
2018-07-05T08:56:45.384Z,1005.19
2018-07-05T08:57:45.376Z,1005.31
2018-07-05T08:58:45.373Z,1005.42
2018-07-05T08:59:45.374Z,1005.41
2018-07-05T09:00:45.366Z,1005.4
2018-07-05T09:01:45.363Z,1005.42
2018-07-05T09:02:45.367Z,1005.45
2018-07-05T09:03:45.360Z,1005.42
2018-07-05T09:04:45.357Z,1005.43
2018-07-05T09:05:45.357Z,1005.43
2018-07-05T09:06:45.359Z,1005.49
2018-07-05T09:07:45.360Z,1005.49
2018-07-05T09:08:45.355Z,1005.52
2018-07-05T09:09:45.355Z,1005.5
2018-07-05T09:10:45.355Z,1005.45
2018-07-05T09:11:45.357Z,1005.44
2018-07-05T09:12:45.356Z,1005.41
2018-07-05T09:13:45.356Z,1005.32
2018-07-05T09:14:45.359Z,1005.36
2018-07-05T09:15:45.357Z,1005.38
2018-07-05T09:16:45.358Z,1005.28
2018-07-05T09:17:45.585Z,1005.22
2018-07-05T09:18:45.361Z,1005.22
2018-07-05T09:19:45.363Z,1005.01
2018-07-05T09:20:45.364Z,1005.03
2018-07-05T09:21:45.365Z,1005.03
2018-07-05T09:22:45.367Z,1004.98
2018-07-05T09:23:45.534Z,1005.2
2018-07-05T09:24:45.369Z,1005.2
2018-07-05T09:25:45.371Z,1005.22
2018-07-05T09:26:45.373Z,1005.1
2018-07-05T09:27:45.371Z,1005.14
2018-07-05T09:28:45.372Z,1005.07
2018-07-05T09:29:45.374Z,1005.09
2018-07-05T09:30:45.372Z,1005.07
2018-07-05T09:31:45.370Z,1005.09
2018-07-05T09:32:45.372Z,1005.19
2018-07-05T09:33:45.371Z,1005.19
2018-07-05T09:34:45.371Z,1005.3
2018-07-05T09:35:45.375Z,1005.35
2018-07-05T09:36:45.373Z,1005.33
2018-07-05T09:37:45.371Z,1005.31
2018-07-05T09:38:45.372Z,1005.33
2018-07-05T09:39:45.378Z,1005.07
2018-07-05T09:40:45.372Z,1005.04
2018-07-05T09:41:45.375Z,1005.24
2018-07-05T09:42:45.575Z,1005.01
2018-07-05T09:43:45.375Z,1005.03
2018-07-05T09:44:45.378Z,1004.98
2018-07-05T09:45:45.378Z,1004.96
2018-07-05T09:46:45.378Z,1004.92
2018-07-05T09:47:45.383Z,1004.9
2018-07-05T09:48:45.377Z,1004.97
2018-07-05T09:49:45.380Z,1004.95
2018-07-05T09:50:45.379Z,1004.94
2018-07-05T09:51:45.377Z,1004.93
2018-07-05T09:52:45.438Z,1004.95
2018-07-05T09:53:45.377Z,1004.93
2018-07-05T09:54:45.376Z,1004.95
2018-07-05T09:55:45.375Z,1004.96
2018-07-05T09:56:45.375Z,1004.95
2018-07-05T09:57:45.372Z,1004.93
2018-07-05T09:58:45.375Z,1004.94
2018-07-05T09:59:45.379Z,1004.96
2018-07-05T10:00:45.369Z,1004.94
2018-07-05T10:01:45.373Z,1004.96
2018-07-05T10:02:45.367Z,1004.99
2018-07-05T10:03:45.409Z,1005
2018-07-05T10:04:45.365Z,1004.94
2018-07-05T10:05:45.365Z,1004.95
2018-07-05T10:06:45.362Z,1004.92
2018-07-05T10:07:45.359Z,1004.86
2018-07-05T10:08:45.360Z,1004.86
2018-07-05T10:09:45.357Z,1004.9
2018-07-05T10:10:45.353Z,1004.89
2018-07-05T10:11:45.354Z,1004.89
2018-07-05T10:12:45.349Z,1004.91
2018-07-05T10:13:45.668Z,1004.87
2018-07-05T10:14:45.346Z,1004.89
2018-07-05T10:15:45.348Z,1004.89
2018-07-05T10:16:45.340Z,1004.87
2018-07-05T10:17:45.346Z,1004.84
2018-07-05T10:18:45.338Z,1004.81
2018-07-05T10:19:45.336Z,1004.96
2018-07-05T10:20:45.336Z,1005.1
2018-07-05T10:21:45.331Z,1005
2018-07-05T10:22:45.331Z,1004.85
2018-07-05T10:23:45.332Z,1004.81
2018-07-05T10:24:45.327Z,1004.76
2018-07-05T10:25:45.327Z,1004.83
2018-07-05T10:26:45.356Z,1004.78
2018-07-05T10:27:45.325Z,1004.77
2018-07-05T10:28:45.323Z,1004.77
2018-07-05T10:29:45.320Z,1004.75
2018-07-05T10:30:45.318Z,1004.74
2018-07-05T10:31:45.316Z,1004.73
2018-07-05T10:32:45.338Z,1004.71
2018-07-05T10:33:45.313Z,1004.66
2018-07-05T10:34:45.311Z,1004.73
2018-07-05T10:35:45.312Z,1004.75
2018-07-05T10:36:45.308Z,1004.71
2018-07-05T10:37:45.306Z,1004.73
2018-07-05T10:38:45.302Z,1004.71
2018-07-05T10:39:45.347Z,1004.76
2018-07-05T10:40:45.297Z,1004.71
2018-07-05T10:41:45.298Z,1004.71
2018-07-05T10:42:45.295Z,1004.7
2018-07-05T10:43:45.291Z,1004.72
2018-07-05T10:44:45.288Z,1004.7
2018-07-05T10:45:45.286Z,1004.7
2018-07-05T10:46:45.286Z,1004.7
2018-07-05T10:47:45.283Z,1004.67
2018-07-05T10:48:45.280Z,1004.7
2018-07-05T10:49:45.274Z,1004.7
2018-07-05T10:50:45.271Z,1004.72
2018-07-05T10:51:45.268Z,1004.69
2018-07-05T10:52:45.275Z,1004.68
2018-07-05T10:53:45.267Z,1004.67
2018-07-05T10:54:45.258Z,1004.71
2018-07-05T10:55:45.256Z,1004.7
2018-07-05T10:56:45.254Z,1004.71
2018-07-05T10:57:45.250Z,1004.71
2018-07-05T10:58:45.246Z,1004.71
2018-07-05T10:59:45.245Z,1004.73
2018-07-05T11:00:45.239Z,1004.72
2018-07-05T11:01:45.234Z,1004.73
2018-07-05T11:02:45.236Z,1004.75
2018-07-05T11:03:45.234Z,1004.71
2018-07-05T11:04:45.227Z,1004.72
2018-07-05T11:05:45.230Z,1004.76
2018-07-05T11:06:45.220Z,1004.75
2018-07-05T11:07:45.215Z,1004.77
2018-07-05T11:08:45.212Z,1004.74
2018-07-05T11:09:45.209Z,1004.77
2018-07-05T11:10:45.206Z,1004.78
2018-07-05T11:11:45.207Z,1004.76
2018-07-05T11:12:45.196Z,1004.78
2018-07-05T11:13:45.193Z,1004.76
2018-07-05T11:14:45.276Z,1004.73
2018-07-05T11:15:45.189Z,1004.76
2018-07-05T11:16:45.212Z,1004.73
2018-07-05T11:17:45.181Z,1004.77
2018-07-05T11:18:45.175Z,1004.79
2018-07-05T11:19:45.172Z,1004.77
2018-07-05T11:20:45.166Z,1004.78
2018-07-05T11:21:45.169Z,1004.76
2018-07-05T11:22:45.160Z,1004.8
2018-07-05T11:23:45.156Z,1004.85
2018-07-05T11:24:45.159Z,1004.83
2018-07-05T11:25:45.154Z,1004.85
2018-07-05T11:26:45.149Z,1004.85
2018-07-05T11:27:45.145Z,1004.83
2018-07-05T11:28:45.142Z,1004.78
2018-07-05T11:29:45.140Z,1004.75
2018-07-05T11:30:45.136Z,1004.8
2018-07-05T11:31:45.133Z,1004.75
2018-07-05T11:32:45.130Z,1004.77
2018-07-05T11:33:45.129Z,1004.77
2018-07-05T11:34:45.133Z,1004.77
2018-07-05T11:35:45.126Z,1004.74
2018-07-05T11:36:45.120Z,1004.72
2018-07-05T11:37:45.118Z,1004.71
2018-07-05T11:38:45.115Z,1004.69
2018-07-05T11:39:45.114Z,1004.76
2018-07-05T11:40:45.112Z,1004.7
2018-07-05T11:41:45.108Z,1004.74
2018-07-05T11:42:45.315Z,1004.79
2018-07-05T11:43:45.102Z,1004.78
2018-07-05T11:44:45.100Z,1004.76
2018-07-05T11:45:45.100Z,1004.77
2018-07-05T11:46:45.132Z,1004.77
2018-07-05T11:47:45.119Z,1004.74
2018-07-05T11:48:45.095Z,1004.73
2018-07-05T11:49:45.087Z,1004.71
2018-07-05T11:50:45.086Z,1004.71
2018-07-05T11:51:45.083Z,1004.76
2018-07-05T11:52:45.080Z,1004.74
2018-07-05T11:53:45.078Z,1004.69
2018-07-05T11:54:45.086Z,1004.72
2018-07-05T11:55:45.076Z,1004.66
2018-07-05T11:56:45.078Z,1004.67
2018-07-05T11:57:45.069Z,1004.7
2018-07-05T11:58:45.092Z,1004.72
2018-07-05T11:59:45.069Z,1004.69
2018-07-05T12:00:45.063Z,1004.65
2018-07-05T12:01:45.067Z,1004.71
2018-07-05T12:02:45.078Z,1004.71
2018-07-05T12:03:45.057Z,1004.61
2018-07-05T12:04:45.062Z,1004.64
2018-07-05T12:05:45.059Z,1004.65
2018-07-05T12:06:45.060Z,1004.61
2018-07-05T12:07:45.054Z,1004.61
2018-07-05T12:08:45.117Z,1004.71